KQEY

Geumsan Rws

Geumsan Rws, South Korea
METAR KQEY 171830Z AUTO 23001KT 9999 CLR 04/03 A2978 RMK A02 TSNO
Observed Flight Rules
Oct-17 @ 18:30 UTC (12 minutes ago) Visual Flight Rules
Wind Visibility Clouds
230° at 1 knots 10,000+ meters
  • Clear skies
Temperatures Readings
Current 4°C / 39°F
Dewpoint 3°C / 37°F
Humidity 93%
Altimeter 29.78" Hg
Pressure 1008 hPa
METAR KQEY 171830Z AUTO 23001KT 9999 CLR 04/03 A2978 RMK A02 TSNO
Observed Flight Rules
Oct-17 @ 18:30 UTC
(12 minutes ago)
VFR
Wind Visibility
230° at 1 knots 10,000+ meters
Clouds
  • Clear skies
Temperature Dewpoint
4°C / 39°F 3°C / 37°F
Humidity Altimeter Pressure
93% 29.78" Hg 1008 hPa